Keo, Arkansas
Current Conditions -  °F | °C
As of 11:53 PM on Thursday 27 Nov 2014 (Local Time) from KLIT Reporting Station
Few Clouds Few Clouds  
Wind Chill: 34°   Ceiling: Unl
Heat Index: 34°   Visibility: 10mi
Dew Point: 27°   Wind: 0mph
Humidity: 75%   Direction: NA
Pressure: 30.44"   Gusts: NA
Location:  34.6°N, 92.01°W
Report Text: KLIT 280553Z 00000KT 10SM FEW250 01/M03 A3044 RMK AO2 SLP311 T00111028 10056 20011 401000011 58011
Loading
Personal Weather Stations






























Interactive Weather Map New forecast layout! Learn more

10-Day Weather Forecast

Advertisements
Track Severe Weather on mobile